| time (UTC) | temp C | wind direction | speed KPH | gust KPH | rain 1hr cm | rain 24hr cm | rain mn cm | humidity % | barometer mb |
| 20260906004039 | 25 | 122 | 0.0 | 0.0 | 0.00 | 0.76 | 0.76 | 97 | 1011.8 |
| 20260906003534 | 25 | 128 | 0.0 | 1.6 | 0.00 | 0.76 | 0.76 | 97 | 1012.1 |
| 20260906003030 | 25 | 129 | 0.0 | 0.0 | 0.00 | 0.76 | 0.76 | 98 | 1012.0 |
| 20260906002525 | 26 | 132 | 0.0 | 0.0 | 0.00 | 0.76 | 0.76 | 99 | 1011.8 |
| 20260906002020 | 26 | 119 | 0.0 | 0.0 | 0.00 | 0.76 | 0.76 | 98 | 1012.1 |
| 20260906001515 | 26 | 119 | 0.0 | 0.0 | 0.00 | 0.76 | 0.76 | 98 | 1012.2 |
| 20260906001009 | 26 | 120 | 0.0 | 0.0 | 0.00 | 0.76 | 0.76 | 96 | 1012.4 |
| 20260906000506 | 27 | 121 | 0.0 | 0.0 | 0.00 | 0.76 | 0.76 | 95 | 1012.3 |
| 20260905235959 | 27 | 120 | 0.0 | 0.0 | 0.00 | 0.76 | 0.76 | 94 | 1012.3 |
| 20260905235453 | 27 | 125 | 0.0 | 0.0 | 0.00 | 0.76 | 0.76 | 93 | 1012.5 |
| 20260905234948 | 27 | 125 | 0.0 | 0.0 | 0.00 | 0.76 | 0.76 | 93 | 1012.7 |
| 20260905234444 | 27 | 115 | 0.0 | 0.0 | 0.00 | 0.76 | 0.76 | 92 | 1012.5 |
| 20260905233944 | 28 | 113 | 0.0 | 0.0 | 0.00 | 0.76 | 0.76 | 91 | 1012.5 |
| 20260905233440 | 28 | 119 | 0.0 | 0.0 | 0.00 | 0.76 | 0.76 | 91 | 1012.4 |
| 20260905232938 | 28 | 119 | 0.0 | 0.0 | 0.00 | 0.76 | 0.76 | 89 | 1012.4 |
| 20260905232435 | 28 | 116 | 0.0 | 0.0 | 0.00 | 0.76 | 0.76 | 88 | 1012.6 |
| 20260905231930 | 28 | 117 | 0.0 | 0.0 | 0.00 | 0.76 | 0.76 | 88 | 1012.7 |
| 20260905231426 | 30 | 117 | 0.0 | 1.6 | 0.00 | 0.76 | 0.76 | 87 | 1012.8 |
| 20260905230922 | 30 | 123 | 0.0 | 0.0 | 0.00 | 0.76 | 0.76 | 81 | 1012.6 |
| 20260905230420 | 30 | 117 | 0.0 | 0.0 | 0.00 | 0.76 | 0.76 | 81 | 1012.5 |
| 20260905225913 | 30 | 115 | 1.6 | 1.6 | 0.00 | 0.76 | 0.76 | 79 | 1012.3 |
| 20260905225408 | 30 | 115 | 0.0 | 1.6 | 0.00 | 0.76 | 0.76 | 80 | 1012.4 |
| 20260905224903 | 30 | 108 | 0.0 | 1.6 | 0.00 | 0.76 | 0.76 | 84 | 1012.4 |
| 20260905224359 | 30 | 115 | 1.6 | 1.6 | 0.00 | 0.76 | 0.76 | 84 | 1012.3 |
| 20260905223853 | 30 | 116 | 1.6 | 1.6 | 0.00 | 0.76 | 0.76 | 81 | 1012.3 |
| 20260905223351 | 30 | 110 | 0.0 | 1.6 | 0.00 | 0.76 | 0.76 | 76 | 1012.4 |
| 20260905222846 | 31 | 103 | 1.6 | 3.2 | 0.00 | 0.76 | 0.76 | 73 | 1012.4 |
| 20260905222345 | 31 | 100 | 1.6 | 4.8 | 0.00 | 0.76 | 0.76 | 75 | 1012.4 |
| 20260905221841 | 32 | 99 | 1.6 | 3.2 | 0.00 | 0.76 | 0.76 | 66 | 1012.5 |
| 20260905221337 | 32 | 82 | 1.6 | 3.2 | 0.00 | 0.76 | 0.76 | 65 | 1012.5 |
| 20260905220833 | 32 | 117 | 0.0 | 3.2 | 0.00 | 0.76 | 0.76 | 74 | 1012.5 |
| 20260905220329 | 32 | 116 | 0.0 | 0.0 | 0.00 | 0.76 | 0.76 | 68 | 1012.2 |
| 20260905215827 | 33 | 112 | 0.0 | 1.6 | 0.00 | 0.76 | 0.76 | 65 | 1012.4 |
| 20260905215324 | 33 | 119 | 3.2 | 3.2 | 0.00 | 0.76 | 0.76 | 61 | 1012.5 |
| 20260905214820 | 33 | 137 | 1.6 | 3.2 | 0.00 | 0.76 | 0.76 | 59 | 1012.2 |
| 20260905214315 | 33 | 157 | 3.2 | 4.8 | 0.00 | 0.76 | 0.76 | 61 | 1012.5 |
| 20260905213810 | 33 | 126 | 1.6 | 3.2 | 0.00 | 0.76 | 0.76 | 63 | 1012.3 |
| 20260905213307 | 33 | 115 | 3.2 | 4.8 | 0.00 | 0.76 | 0.76 | 62 | 1012.3 |
| 20260905212806 | 33 | 130 | 1.6 | 4.8 | 0.00 | 0.76 | 0.76 | 60 | 1012.2 |
| 20260905212301 | 33 | 150 | 1.6 | 1.6 | 0.00 | 0.76 | 0.76 | 59 | 1012.2 |
| 20260905211801 | 33 | 149 | 1.6 | 4.8 | 0.00 | 0.76 | 0.76 | 61 | 1012.4 |
| 20260905211256 | 33 | 146 | 3.2 | 6.4 | 0.00 | 0.76 | 0.76 | 58 | 1012.2 |
| 20260905210753 | 33 | 129 | 0.0 | 3.2 | 0.00 | 0.76 | 0.76 | 57 | 1012.4 |
| 20260905210252 | 33 | 142 | 3.2 | 6.4 | 0.00 | 0.76 | 0.76 | 58 | 1012.5 |
| 20260905205751 | 33 | 131 | 1.6 | 4.8 | 0.00 | 0.76 | 0.76 | 64 | 1012.4 |
| 20260905205246 | 33 | 172 | 3.2 | 3.2 | 0.00 | 0.76 | 0.76 | 59 | 1012.6 |
| 20260905204745 | 32 | 145 | 1.6 | 4.8 | 0.00 | 0.76 | 0.76 | 62 | 1012.5 |
| 20260905204241 | 33 | 215 | 9.7 | 12.9 | 0.00 | 0.76 | 0.76 | 59 | 1012.5 |
| 20260905203740 | 33 | 168 | 3.2 | 6.4 | 0.00 | 0.76 | 0.76 | 59 | 1012.6 |
| 20260905203236 | 33 | 129 | 1.6 | 6.4 | 0.00 | 0.76 | 0.76 | 59 | 1012.6 |
| 20260905202731 | 33 | 170 | 4.8 | 9.7 | 0.00 | 0.76 | 0.76 | 59 | 1012.8 |
| 20260905202227 | 33 | 199 | 6.4 | 6.4 | 0.00 | 0.76 | 0.76 | 60 | 1012.7 |
| 20260905201723 | 33 | 212 | 4.8 | 4.8 | 0.00 | 0.76 | 0.76 | 60 | 1012.9 |
| 20260905201222 | 33 | 131 | 3.2 | 3.2 | 0.00 | 0.76 | 0.76 | 57 | 1013.0 |
| 20260905200717 | 33 | 133 | 1.6 | 1.6 | 0.00 | 0.76 | 0.76 | 59 | 1013.1 |
| 20260905200213 | 33 | 148 | 3.2 | 9.7 | 0.00 | 0.76 | 0.76 | 59 | 1013.1 |
| 20260905195711 | 33 | 139 | 1.6 | 6.4 | 0.00 | 0.76 | 0.76 | 61 | 1013.2 |
| 20260905195206 | 33 | 129 | 0.0 | 3.2 | 0.00 | 0.76 | 0.76 | 58 | 1013.3 |
| 20260905194702 | 32 | 121 | 0.0 | 1.6 | 0.00 | 0.76 | 0.76 | 60 | 1013.4 |
| 20260905194155 | 32 | 127 | 0.0 | 3.2 | 0.00 | 0.76 | 0.76 | 61 | 1013.4 |
| 20260905193650 | 32 | 205 | 6.4 | 11.3 | 0.00 | 0.76 | 0.76 | 59 | 1013.4 |
| 20260905193144 | 33 | 152 | 4.8 | 4.8 | 0.00 | 0.76 | 0.76 | 60 | 1013.6 |
| 20260905192640 | 33 | 167 | 1.6 | 3.2 | 0.00 | 0.76 | 0.76 | 56 | 1013.7 |
| 20260905192137 | 33 | 139 | 1.6 | 3.2 | 0.00 | 0.76 | 0.76 | 60 | 1013.8 |
| 20260905191637 | 33 | 172 | 3.2 | 6.4 | 0.00 | 0.76 | 0.76 | 58 | 1013.7 |
| 20260905191134 | 33 | 117 | 1.6 | 3.2 | 0.00 | 0.76 | 0.76 | 60 | 1013.7 |
| 20260905190632 | 32 | 128 | 6.4 | 9.7 | 0.00 | 0.76 | 0.76 | 61 | 1013.9 |
| 20260905190126 | 32 | 140 | 1.6 | 3.2 | 0.00 | 0.76 | 0.76 | 61 | 1013.7 |
| 20260905185625 | 32 | 108 | 1.6 | 3.2 | 0.00 | 0.76 | 0.76 | 60 | 1013.8 |
| 20260905185120 | 32 | 140 | 3.2 | 4.8 | 0.00 | 0.76 | 0.76 | 60 | 1013.9 |
| 20260905184614 | 32 | 99 | 3.2 | 6.4 | 0.00 | 0.76 | 0.76 | 60 | 1013.9 |
| 20260905184113 | 32 | 103 | 3.2 | 6.4 | 0.00 | 0.76 | 0.76 | 62 | 1014.1 |
| 20260905183612 | 32 | 157 | 1.6 | 6.4 | 0.00 | 0.76 | 0.76 | 62 | 1014.0 |
| 20260905183109 | 32 | 62 | 8.0 | 9.7 | 0.00 | 0.76 | 0.76 | 60 | 1014.0 |
| 20260905182608 | 32 | 114 | 1.6 | 6.4 | 0.00 | 0.76 | 0.76 | 60 | 1014.2 |
| 20260905182108 | 32 | 86 | 3.2 | 3.2 | 0.00 | 0.76 | 0.76 | 58 | 1014.2 |
| 20260905181608 | 31 | 169 | 1.6 | 9.7 | 0.00 | 0.76 | 0.76 | 59 | 1014.4 |
| 20260905181107 | 31 | 126 | 1.6 | 9.7 | 0.00 | 0.76 | 0.76 | 59 | 1014.2 |
| 20260905180602 | 31 | 102 | 3.2 | 6.4 | 0.00 | 0.76 | 0.76 | 60 | 1014.4 |
| 20260905180057 | 31 | 176 | 4.8 | 4.8 | 0.00 | 0.76 | 0.76 | 61 | 1014.5 |
| 20260905175556 | 31 | 135 | 3.2 | 4.8 | 0.00 | 0.76 | 0.76 | 61 | 1014.5 |
| 20260905175052 | 31 | 99 | 3.2 | 6.4 | 0.00 | 0.76 | 0.76 | 64 | 1014.7 |
| 20260905174547 | 32 | 39 | 6.4 | 9.7 | 0.00 | 0.76 | 0.76 | 58 | 1014.6 |
| 20260905174042 | 31 | 91 | 3.2 | 4.8 | 0.00 | 0.76 | 0.76 | 60 | 1014.7 |
| 20260905173539 | 31 | 144 | 4.8 | 11.3 | 0.00 | 0.76 | 0.76 | 59 | 1014.6 |
| 20260905173034 | 32 | 152 | 3.2 | 3.2 | 0.00 | 0.76 | 0.76 | 61 | 1014.6 |
| 20260905172533 | 31 | 98 | 3.2 | 6.4 | 0.00 | 0.76 | 0.76 | 60 | 1014.6 |
| 20260905172028 | 31 | 112 | 4.8 | 6.4 | 0.00 | 0.76 | 0.76 | 60 | 1014.7 |
| 20260905171525 | 31 | 121 | 4.8 | 9.7 | 0.00 | 0.76 | 0.76 | 58 | 1014.7 |
| 20260905171020 | 31 | 125 | 0.0 | 4.8 | 0.00 | 0.76 | 0.76 | 65 | 1014.7 |
| 20260905170517 | 31 | 117 | 6.4 | 6.4 | 0.00 | 0.76 | 0.76 | 58 | 1015.0 |
| 20260905170012 | 31 | 105 | 1.6 | 3.2 | 0.00 | 0.76 | 0.76 | 57 | 1015.0 |
| 20260905165507 | 31 | 115 | 0.0 | 1.6 | 0.00 | 0.76 | 0.76 | 60 | 1015.0 |
| 20260905165001 | 31 | 126 | 1.6 | 4.8 | 0.00 | 0.76 | 0.76 | 63 | 1015.2 |
| 20260905164455 | 30 | 50 | 6.4 | 11.3 | 0.00 | 0.76 | 0.76 | 57 | 1015.4 |
| 20260905163950 | 31 | 77 | 4.8 | 6.4 | 0.00 | 0.76 | 0.76 | 61 | 1015.3 |
| 20260905163447 | 31 | 74 | 6.4 | 6.4 | 0.00 | 0.76 | 0.76 | 57 | 1015.3 |
| 20260905162943 | 30 | 115 | 3.2 | 9.7 | 0.00 | 0.76 | 0.76 | 66 | 1015.3 |
| 20260905162438 | 30 | 100 | 6.4 | 9.7 | 0.00 | 0.76 | 0.76 | 61 | 1015.3 |
| 20260905161932 | 30 | 129 | 6.4 | 11.3 | 0.00 | 0.76 | 0.76 | 64 | 1015.2 |
| 20260905161431 | 30 | 31 | 6.4 | 12.9 | 0.00 | 0.76 | 0.76 | 64 | 1015.4 |
| 20260905160930 | 30 | 35 | 6.4 | 11.3 | 0.00 | 0.76 | 0.76 | 60 | 1015.3 |
| 20260905160425 | 29 | 86 | 8.0 | 11.3 | 0.00 | 0.76 | 0.76 | 65 | 1015.3 |
| 20260905155924 | 29 | 82 | 6.4 | 11.3 | 0.00 | 0.76 | 0.76 | 63 | 1015.3 |
| 20260905155418 | 29 | 113 | 6.4 | 11.3 | 0.00 | 0.76 | 0.76 | 66 | 1015.3 |
| 20260905154916 | 28 | 94 | 4.8 | 12.9 | 0.00 | 0.76 | 0.76 | 67 | 1015.3 |
| 20260905154412 | 28 | 111 | 4.8 | 12.9 | 0.00 | 0.76 | 0.76 | 68 | 1015.4 |
| 20260905153908 | 28 | 98 | 6.4 | 9.7 | 0.00 | 0.76 | 0.76 | 69 | 1015.5 |
| 20260905153404 | 28 | 81 | 6.4 | 16.1 | 0.00 | 0.76 | 0.76 | 69 | 1015.5 |
| 20260905152904 | 28 | 53 | 6.4 | 9.7 | 0.00 | 0.76 | 0.76 | 71 | 1015.8 |
| 20260905152403 | 27 | 90 | 6.4 | 11.3 | 0.00 | 0.76 | 0.76 | 72 | 1015.7 |
| 20260905151858 | 28 | 88 | 8.0 | 12.9 | 0.00 | 0.76 | 0.76 | 70 | 1015.8 |
| 20260905151355 | 27 | 50 | 3.2 | 9.7 | 0.00 | 0.76 | 0.76 | 74 | 1015.7 |
| 20260905150854 | 27 | 120 | 3.2 | 6.4 | 0.00 | 0.76 | 0.76 | 77 | 1016.0 |
| 20260905150348 | 27 | 58 | 3.2 | 6.4 | 0.00 | 0.76 | 0.76 | 73 | 1016.0 |
| 20260905145846 | 27 | 85 | 3.2 | 9.7 | 0.00 | 0.76 | 0.76 | 77 | 1015.9 |
| 20260905145346 | 26 | 59 | 3.2 | 6.4 | 0.00 | 0.76 | 0.76 | 78 | 1015.9 |
| 20260905144845 | 26 | 56 | 4.8 | 11.3 | 0.00 | 0.76 | 0.76 | 78 | 1015.9 |
| 20260905144336 | 26 | 95 | 4.8 | 11.3 | 0.00 | 0.76 | 0.76 | 78 | 1015.9 |
| 20260905143834 | 25 | 105 | 6.4 | 9.7 | 0.00 | 0.76 | 0.76 | 82 | 1015.8 |
| 20260905143328 | 25 | 79 | 9.7 | 11.3 | 0.00 | 0.76 | 0.76 | 80 | 1016.1 |
| 20260905142827 | 25 | 54 | 4.8 | 11.3 | 0.00 | 0.76 | 0.76 | 82 | 1016.1 |
| 20260905142321 | 25 | 82 | 9.7 | 16.1 | 0.00 | 0.76 | 0.76 | 82 | 1016.2 |
| 20260905141817 | 25 | 79 | 6.4 | 12.9 | 0.00 | 0.76 | 0.76 | 85 | 1016.4 |
| 20260905141312 | 25 | 37 | 8.0 | 14.5 | 0.00 | 0.76 | 0.76 | 85 | 1016.0 |
| 20260905140808 | 24 | 81 | 3.2 | 9.7 | 0.00 | 0.76 | 0.76 | 88 | 1016.4 |
| 20260905140308 | 23 | 27 | 9.7 | 14.5 | 0.00 | 0.76 | 0.76 | 88 | 1016.4 |
| 20260905135806 | 23 | 12 | 3.2 | 14.5 | 0.00 | 0.76 | 0.76 | 89 | 1016.2 |
| 20260905135257 | 23 | 16 | 9.7 | 16.1 | 0.00 | 0.76 | 0.76 | 90 | 1016.1 |
| 20260905134757 | 23 | 17 | 14.5 | 16.1 | 0.00 | 0.76 | 0.76 | 90 | 1016.3 |
| 20260905134251 | 22 | 355 | 11.3 | 14.5 | 0.00 | 0.76 | 0.76 | 92 | 1016.2 |
| 20260905133745 | 22 | 32 | 4.8 | 9.7 | 0.00 | 0.76 | 0.76 | 94 | 1016.2 |
| 20260905133240 | 22 | 53 | 8.0 | 14.5 | 0.00 | 0.76 | 0.76 | 93 | 1016.3 |
| 20260905132739 | 22 | 7 | 4.8 | 9.7 | 0.00 | 0.76 | 0.76 | 96 | 1016.6 |
| 20260905132235 | 21 | 30 | 6.4 | 14.5 | 0.00 | 0.76 | 0.76 | 97 | 1016.4 |
| 20260905131730 | 21 | 36 | 4.8 | 12.9 | 0.00 | 0.76 | 0.76 | 97 | 1016.6 |
| 20260905131225 | 21 | 7 | 6.4 | 9.7 | 0.00 | 0.76 | 0.76 | 97 | 1016.8 |
| 20260905130720 | 21 | 27 | 4.8 | 14.5 | 0.13 | 0.76 | 0.76 | 97 | 1016.9 |
| 20260905130219 | 21 | 328 | 8.0 | 20.9 | 0.43 | 0.76 | 0.76 | 96 | 1016.9 |
| 20260905125714 | 21 | 6 | 8.0 | 20.9 | 0.30 | 0.74 | 0.74 | 95 | 1016.6 |
| 20260905125209 | 22 | 5 | 9.7 | 12.9 | 0.00 | 0.69 | 0.69 | 91 | 1017.0 |
| 20260905124706 | 22 | 63 | 4.8 | 6.4 | 0.00 | 0.69 | 0.69 | 91 | 1017.3 |
| 20260905124201 | 22 | 46 | 3.2 | 4.8 | 0.00 | 0.69 | 0.69 | 91 | 1017.0 |
| 20260905123656 | 22 | 29 | 3.2 | 6.4 | 0.00 | 0.69 | 0.69 | 91 | 1016.8 |
| 20260905123154 | 22 | 11 | 3.2 | 14.5 | 0.00 | 0.69 | 0.69 | 91 | 1016.4 |
| 20260905122653 | 22 | 26 | 8.0 | 11.3 | 0.00 | 0.69 | 0.69 | 92 | 1016.4 |
| 20260905122148 | 22 | 25 | 3.2 | 9.7 | 0.00 | 0.69 | 0.69 | 93 | 1016.1 |
| 20260905121642 | 22 | 9 | 4.8 | 6.4 | 0.00 | 0.69 | 0.69 | 92 | 1015.9 |
| 20260905121138 | 22 | 58 | 1.6 | 4.8 | 0.00 | 0.69 | 0.69 | 93 | 1015.7 |
| 20260905120637 | 22 | 8 | 6.4 | 6.4 | 0.00 | 0.69 | 0.69 | 94 | 1015.9 |
| 20260905120132 | 22 | 32 | 4.8 | 11.3 | 0.00 | 0.69 | 0.69 | 94 | 1015.8 |
| 20260905115631 | 22 | 344 | 6.4 | 9.7 | 0.00 | 0.69 | 0.69 | 94 | 1015.8 |
| 20260905115126 | 22 | 30 | 6.4 | 11.3 | 0.00 | 0.69 | 0.69 | 94 | 1015.5 |
| 20260905114626 | 22 | 96 | 4.8 | 11.3 | 0.00 | 0.69 | 0.69 | 93 | 1015.6 |
| 20260905114125 | 22 | 16 | 6.4 | 9.7 | 0.00 | 0.69 | 0.69 | 93 | 1015.6 |
| 20260905113620 | 22 | 327 | 6.4 | 14.5 | 0.00 | 0.69 | 0.69 | 93 | 1015.6 |
| 20260905113116 | 22 | 11 | 4.8 | 11.3 | 0.00 | 0.69 | 0.69 | 93 | 1015.6 |
| 20260905112610 | 22 | 349 | 6.4 | 11.3 | 0.00 | 0.69 | 0.69 | 93 | 1015.5 |
| 20260905112106 | 22 | 134 | 3.2 | 6.4 | 0.00 | 0.69 | 0.69 | 95 | 1015.4 |
| 20260905111606 | 22 | 4 | 6.4 | 11.3 | 0.00 | 0.69 | 0.69 | 95 | 1015.5 |
| 20260905111105 | 22 | 5 | 4.8 | 12.9 | 0.00 | 0.69 | 0.69 | 95 | 1015.5 |
| 20260905110604 | 22 | 321 | 8.0 | 16.1 | 0.00 | 0.69 | 0.69 | 94 | 1015.3 |
| 20260905110059 | 22 | 78 | 6.4 | 11.3 | 0.00 | 0.69 | 0.69 | 94 | 1014.9 |
| 20260905105554 | 22 | 34 | 6.4 | 17.7 | 0.00 | 0.69 | 0.69 | 93 | 1015.0 |
| 20260905105053 | 22 | 69 | 3.2 | 12.9 | 0.00 | 0.69 | 0.69 | 95 | 1015.4 |
| 20260905104549 | 22 | 344 | 8.0 | 11.3 | 0.00 | 0.69 | 0.69 | 99 | 1015.5 |
| 20260905104049 | 22 | 326 | 6.4 | 9.7 | 0.00 | 0.69 | 0.69 | 99 | 1015.0 |
| 20260905103544 | 22 | 84 | 3.2 | 3.2 | 0.00 | 0.69 | 0.69 | 99 | 1014.5 |
| 20260905103040 | 22 | 111 | 1.6 | 3.2 | 0.00 | 0.69 | 0.69 | 99 | 1014.3 |
| 20260905102536 | 22 | 131 | 0.0 | 3.2 | 0.00 | 0.69 | 0.69 | 98 | 1014.3 |
| 20260905102032 | 22 | 162 | 3.2 | 3.2 | 0.00 | 0.69 | 0.69 | 96 | 1014.2 |
| 20260905101530 | 23 | 126 | 1.6 | 4.8 | 0.00 | 0.69 | 0.69 | 92 | 1014.3 |
| 20260905101029 | 23 | 177 | 3.2 | 9.7 | 1.07 | 0.69 | 0.69 | 91 | 1014.3 |
| 20260905100526 | 24 | 232 | 6.4 | 9.7 | 4.14 | 0.69 | 0.69 | 85 | 1014.2 |
| 20260905100025 | 22 | 229 | 14.5 | 25.7 | 2.95 | 0.48 | 0.48 | 99 | 1015.5 |
| 20260905095520 | 22 | 189 | 8.0 | 12.9 | 0.00 | 0.00 | 0.00 | 99 | 1014.9 |
| 20260905095015 | 22 | 182 | 3.2 | 3.2 | 0.00 | 0.00 | 0.00 | 99 | 1014.9 |
| 20260905094510 | 22 | 193 | 0.0 | 0.0 | 0.00 | 0.00 | 0.00 | 99 | 1014.4 |
| 20260905094009 | 22 | 116 | 0.0 | 0.0 | 0.00 | 0.00 | 0.00 | 99 | 1013.9 |
| 20260905093504 | 22 | 118 | 0.0 | 0.0 | 0.00 | 0.00 | 0.00 | 99 | 1014.1 |
| 20260905093000 | 22 | 120 | 0.0 | 0.0 | 0.00 | 0.00 | 0.00 | 99 | 1014.2 |
| 20260905092455 | 22 | 119 | 0.0 | 0.0 | 0.00 | 0.00 | 0.00 | 99 | 1014.0 |
| 20260905091950 | 22 | 120 | 0.0 | 0.0 | 0.00 | 0.00 | 0.00 | 99 | 1013.8 |
| 20260905091444 | 22 | 138 | 0.0 | 0.0 | 0.00 | 0.00 | 0.00 | 99 | 1013.9 |
| 20260905090939 | 22 | 120 | 0.0 | 0.0 | 0.00 | 0.00 | 0.00 | 99 | 1013.8 |
| 20260905090434 | 22 | 112 | 0.0 | 0.0 | 0.00 | 0.00 | 0.00 | 99 | 1013.9 |
| 20260905085932 | 22 | 120 | 0.0 | 0.0 | 0.00 | 0.00 | 0.00 | 99 | 1013.9 |
| 20260905085433 | 22 | 110 | 0.0 | 0.0 | 0.00 | 0.00 | 0.00 | 99 | 1013.8 |
| 20260905084928 | 22 | 122 | 0.0 | 0.0 | 0.00 | 0.00 | 0.00 | 99 | 1013.7 |
| 20260905084428 | 22 | 117 | 0.0 | 0.0 | 0.00 | 0.00 | 0.00 | 99 | 1014.0 |
| 20260905083922 | 22 | 120 | 0.0 | 0.0 | 0.00 | 0.00 | 0.00 | 99 | 1014.0 |
| 20260905083418 | 22 | 120 | 0.0 | 0.0 | 0.00 | 0.00 | 0.00 | 99 | 1014.0 |
| 20260905082914 | 22 | 115 | 0.0 | 0.0 | 0.00 | 0.00 | 0.00 | 99 | 1013.7 |
| 20260905082409 | 22 | 107 | 0.0 | 0.0 | 0.00 | 0.00 | 0.00 | 99 | 1013.8 |
| 20260905081904 | 22 | 127 | 0.0 | 0.0 | 0.00 | 0.00 | 0.00 | 99 | 1013.9 |
| 20260905081359 | 22 | 129 | 0.0 | 0.0 | 0.00 | 0.00 | 0.00 | 99 | 1013.7 |
| 20260905080858 | 22 | 122 | 0.0 | 0.0 | 0.00 | 0.00 | 0.00 | 99 | 1013.9 |
| 20260905080353 | 22 | 117 | 0.0 | 0.0 | 0.00 | 0.00 | 0.00 | 99 | 1013.7 |
| 20260905075851 | 22 | 113 | 0.0 | 0.0 | 0.00 | 0.00 | 0.00 | 99 | 1013.8 |
| 20260905075345 | 22 | 117 | 0.0 | 0.0 | 0.00 | 0.00 | 0.00 | 99 | 1014.0 |
| 20260905074844 | 22 | 118 | 0.0 | 0.0 | 0.00 | 0.00 | 0.00 | 99 | 1013.9 |
| 20260905074340 | 22 | 118 | 0.0 | 0.0 | 0.00 | 0.00 | 0.00 | 99 | 1014.0 |
| 20260905073836 | 22 | 117 | 0.0 | 0.0 | 0.00 | 0.00 | 0.00 | 99 | 1014.0 |
| 20260905073325 | 22 | 119 | 0.0 | 0.0 | 0.00 | 0.00 | 0.00 | 99 | 1014.0 |
| 20260905072820 | 22 | 119 | 0.0 | 0.0 | 0.00 | 0.00 | 0.00 | 99 | 1014.2 |
| 20260905072315 | 22 | 115 | 0.0 | 0.0 | 0.00 | 0.00 | 0.00 | 99 | 1014.1 |
| 20260905071812 | 22 | 113 | 0.0 | 0.0 | 0.00 | 0.00 | 0.00 | 99 | 1014.1 |
| 20260905071307 | 22 | 119 | 0.0 | 0.0 | 0.00 | 0.00 | 0.00 | 99 | 1014.1 |
| 20260905070802 | 22 | 119 | 0.0 | 0.0 | 0.00 | 0.00 | 0.00 | 99 | 1014.1 |
| 20260905070258 | 22 | 121 | 0.0 | 0.0 | 0.00 | 0.00 | 0.00 | 99 | 1014.2 |
| 20260905065757 | 22 | 121 | 0.0 | 0.0 | 0.00 | 0.00 | 0.00 | 99 | 1014.1 |
| 20260905065250 | 22 | 122 | 0.0 | 0.0 | 0.00 | 0.00 | 0.00 | 99 | 1014.2 |
| 20260905064746 | 22 | 120 | 0.0 | 0.0 | 0.00 | 0.00 | 0.00 | 99 | 1014.5 |
| 20260905064242 | 22 | 120 | 0.0 | 0.0 | 0.00 | 0.00 | 0.00 | 99 | 1014.5 |
| 20260905063740 | 22 | 123 | 0.0 | 0.0 | 0.00 | 0.00 | 0.00 | 99 | 1014.7 |
| 20260905063236 | 22 | 117 | 0.0 | 0.0 | 0.00 | 0.00 | 0.00 | 99 | 1014.7 |
| 20260905062731 | 22 | 117 | 0.0 | 0.0 | 0.00 | 0.00 | 0.00 | 99 | 1014.6 |
| 20260905062225 | 22 | 112 | 0.0 | 0.0 | 0.00 | 0.00 | 0.00 | 99 | 1014.6 |
| 20260905061720 | 22 | 120 | 0.0 | 0.0 | 0.00 | 0.00 | 0.00 | 99 | 1014.8 |
| 20260905061214 | 23 | 127 | 0.0 | 0.0 | 0.00 | 0.00 | 0.00 | 99 | 1014.9 |
| 20260905060709 | 22 | 121 | 0.0 | 0.0 | 0.00 | 0.00 | 0.00 | 99 | 1014.9 |
| 20260905060206 | 23 | 121 | 0.0 | 0.0 | 0.00 | 0.00 | 0.00 | 99 | 1014.8 |
| 20260905055704 | 22 | 121 | 0.0 | 0.0 | 0.00 | 0.00 | 0.00 | 99 | 1014.8 |
| 20260905055200 | 23 | 112 | 0.0 | 0.0 | 0.00 | 0.00 | 0.00 | 99 | 1015.0 |
| 20260905054655 | 23 | 95 | 0.0 | 0.0 | 0.00 | 0.00 | 0.00 | 99 | 1015.0 |
| 20260905054150 | 23 | 116 | 0.0 | 0.0 | 0.00 | 0.00 | 0.00 | 99 | 1014.9 |
| 20260905053644 | 23 | 120 | 0.0 | 0.0 | 0.00 | 0.00 | 0.00 | 99 | 1015.2 |
| 20260905053139 | 23 | 112 | 0.0 | 0.0 | 0.00 | 0.00 | 0.00 | 99 | 1015.0 |
| 20260905052639 | 23 | 115 | 0.0 | 0.0 | 0.00 | 0.00 | 0.00 | 99 | 1015.2 |
| 20260905052133 | 23 | 119 | 0.0 | 0.0 | 0.00 | 0.00 | 0.00 | 99 | 1015.2 |
| 20260905051629 | 23 | 119 | 0.0 | 0.0 | 0.00 | 0.00 | 0.00 | 99 | 1015.0 |
| 20260905051125 | 23 | 119 | 0.0 | 0.0 | 0.00 | 0.00 | 0.00 | 99 | 1014.9 |
| 20260905050622 | 23 | 119 | 0.0 | 0.0 | 0.00 | 0.00 | 0.00 | 99 | 1015.2 |
| 20260905050118 | 23 | 118 | 0.0 | 0.0 | 0.00 | 0.00 | 0.00 | 99 | 1014.9 |
| 20260905045618 | 23 | 118 | 0.0 | 0.0 | 0.00 | 0.00 | 0.00 | 99 | 1015.2 |
| 20260905045113 | 23 | 118 | 0.0 | 0.0 | 0.00 | 0.00 | 0.00 | 99 | 1015.2 |
| 20260905044608 | 23 | 118 | 0.0 | 0.0 | 0.00 | 0.00 | 0.00 | 99 | 1015.2 |
| 20260905044103 | 23 | 118 | 0.0 | 0.0 | 0.00 | 0.00 | 0.00 | 99 | 1015.2 |
| 20260905043601 | 23 | 107 | 0.0 | 0.0 | 0.00 | 0.00 | 0.00 | 99 | 1015.3 |
| 20260905043057 | 23 | 114 | 0.0 | 0.0 | 0.00 | 0.00 | 0.00 | 99 | 1015.0 |
| 20260905042555 | 23 | 109 | 0.0 | 0.0 | 0.00 | 0.00 | 0.00 | 99 | 1015.4 |
| 20260905042051 | 23 | 119 | 0.0 | 0.0 | 0.00 | 0.00 | 0.00 | 99 | 1015.3 |
| 20260905041546 | 23 | 119 | 0.0 | 0.0 | 0.00 | 0.00 | 0.00 | 99 | 1015.2 |
| 20260905041042 | 23 | 118 | 0.0 | 0.0 | 0.00 | 0.00 | 0.00 | 99 | 1015.3 |
| 20260905040541 | 23 | 117 | 0.0 | 0.0 | 0.00 | 0.00 | 0.00 | 99 | 1015.3 |
| 20260905040039 | 23 | 119 | 0.0 | 0.0 | 0.00 | 0.00 | 0.00 | 99 | 1015.0 |
| 20260905035535 | 23 | 119 | 0.0 | 0.0 | 0.00 | 0.00 | 0.00 | 99 | 1015.4 |
| 20260905035032 | 23 | 119 | 0.0 | 0.0 | 0.00 | 0.00 | 0.00 | 99 | 1015.3 |
| 20260905034527 | 23 | 119 | 0.0 | 0.0 | 0.00 | 0.00 | 0.00 | 99 | 1015.5 |
| 20260905034026 | 23 | 117 | 0.0 | 0.0 | 0.00 | 0.00 | 0.00 | 99 | 1015.4 |
| 20260905033520 | 23 | 117 | 0.0 | 0.0 | 0.00 | 0.00 | 0.00 | 99 | 1015.7 |
| 20260905033017 | 23 | 112 | 0.0 | 0.0 | 0.00 | 0.00 | 0.00 | 99 | 1015.5 |
| 20260905032511 | 23 | 120 | 0.0 | 0.0 | 0.00 | 0.00 | 0.00 | 99 | 1015.4 |
| 20260905032006 | 23 | 120 | 0.0 | 0.0 | 0.00 | 0.00 | 0.00 | 99 | 1015.4 |
| 20260905031502 | 23 | 120 | 0.0 | 0.0 | 0.00 | 0.00 | 0.00 | 99 | 1015.5 |
| 20260905030956 | 24 | 120 | 0.0 | 0.0 | 0.00 | 0.00 | 0.00 | 99 | 1015.8 |
| 20260905030452 | 24 | 120 | 0.0 | 0.0 | 0.00 | 0.00 | 0.00 | 99 | 1015.6 |
| 20260905025950 | 24 | 120 | 0.0 | 0.0 | 0.00 | 0.00 | 0.00 | 99 | 1015.7 |
| 20260905025447 | 24 | 124 | 0.0 | 0.0 | 0.00 | 0.00 | 0.00 | 99 | 1015.5 |
| 20260905024943 | 24 | 115 | 0.0 | 0.0 | 0.00 | 0.00 | 0.00 | 99 | 1015.4 |
| 20260905024443 | 24 | 119 | 0.0 | 0.0 | 0.00 | 0.00 | 0.00 | 99 | 1015.5 |
| 20260905023939 | 24 | 121 | 0.0 | 0.0 | 0.00 | 0.00 | 0.00 | 99 | 1015.4 |
| 20260905023428 | 24 | 117 | 0.0 | 0.0 | 0.00 | 0.00 | 0.00 | 99 | 1015.2 |
| 20260905022927 | 24 | 117 | 0.0 | 0.0 | 0.00 | 0.00 | 0.00 | 99 | 1015.2 |
| 20260905022422 | 24 | 117 | 0.0 | 0.0 | 0.00 | 0.00 | 0.00 | 99 | 1015.3 |
| 20260905021917 | 24 | 117 | 0.0 | 0.0 | 0.00 | 0.00 | 0.00 | 99 | 1015.3 |
| 20260905021412 | 24 | 117 | 0.0 | 0.0 | 0.00 | 0.00 | 0.00 | 99 | 1015.2 |
| 20260905020907 | 25 | 116 | 0.0 | 0.0 | 0.00 | 0.00 | 0.00 | 99 | 1015.0 |
| 20260905020406 | 25 | 115 | 0.0 | 0.0 | 0.00 | 0.00 | 0.00 | 99 | 1015.0 |
| 20260905015906 | 25 | 115 | 0.0 | 0.0 | 0.00 | 0.00 | 0.00 | 99 | 1015.0 |
| 20260905015405 | 25 | 116 | 0.0 | 0.0 | 0.00 | 0.00 | 0.00 | 99 | 1014.9 |
| 20260905014904 | 25 | 119 | 0.0 | 0.0 | 0.00 | 0.00 | 0.00 | 99 | 1015.0 |
| 20260905014400 | 25 | 119 | 0.0 | 0.0 | 0.00 | 0.00 | 0.00 | 99 | 1014.9 |
| 20260905013855 | 25 | 119 | 0.0 | 0.0 | 0.00 | 0.00 | 0.00 | 99 | 1014.9 |
| 20260905013352 | 25 | 119 | 0.0 | 0.0 | 0.00 | 0.00 | 0.00 | 99 | 1015.0 |
| 20260905012851 | 25 | 119 | 0.0 | 0.0 | 0.00 | 0.00 | 0.00 | 99 | 1014.9 |
| 20260905012347 | 25 | 119 | 0.0 | 0.0 | 0.00 | 0.00 | 0.00 | 99 | 1014.8 |
| 20260905011844 | 25 | 118 | 0.0 | 0.0 | 0.00 | 0.00 | 0.00 | 99 | 1014.9 |
| 20260905011339 | 25 | 117 | 0.0 | 0.0 | 0.00 | 0.00 | 0.00 | 99 | 1014.6 |
| 20260905010834 | 25 | 118 | 0.0 | 0.0 | 0.00 | 0.00 | 0.00 | 99 | 1014.6 |
| 20260905010324 | 25 | 119 | 0.0 | 0.0 | 0.00 | 0.00 | 0.00 | 99 | 1014.6 |
| 20260905005820 | 25 | 117 | 0.0 | 0.0 | 0.00 | 0.00 | 0.00 | 99 | 1014.7 |
| 20260905005316 | 26 | 117 | 0.0 | 0.0 | 0.00 | 0.00 | 0.00 | 98 | 1014.4 |
| 20260905004816 | 26 | 114 | 0.0 | 0.0 | 0.00 | 0.00 | 0.00 | 98 | 1014.3 |
| 20260905004310 | 26 | 119 | 0.0 | 0.0 | 0.00 | 0.00 | 0.00 | 98 | 1014.3 |